Aberdeen, Phillips Army Airfield (KAPG)

NamePhillips Army Airfield
CityAberdeen
CountryUnited States
ICAOKAPG
IATAAPG
Altitude17 m
CoordinatesGoogle Map
Live Air TrafficLiveATC.net
METARKAPG 142348Z 27003KT 7SM FEW100 21/08 A3005
2019-06-14 23:48:00 Wind: West (270°) 1.54 m/s - Visibility: 11265.38 m - Temperature: 21 °C - Dew point: 8 °C - Humidity: 43.3% - Pressure: 1017.61 hPa

Sorry, no flights used the airport in this database.